Time;durP1;ratioP1;P1;durP2;ratioP2;P2;SDS_P1;SDS_P2;PMS_P1;PMS_P2;Temp;Humidity;BMP_temperature;BMP_pressure;BME280_temperature;BME280_humidity;BME280_pressure;Samples;Min_cycle;Max_cycle;Signal;HPM_P1;HPM_P2
2023/02/13 00:03:54;;;;;;;1999.90;999.90;;;9.00;99.90;;;;;;6714582;88;20230;-79
2023/02/13 00:13:55;;;;;;;1999.90;999.90;;;9.00;99.90;;;;;;6713879;88;20196;-79
2023/02/13 00:23:55;;;;;;;1999.90;999.90;;;9.00;99.90;;;;;;6727797;88;20316;-78
2023/02/13 00:33:56;;;;;;;1999.90;999.90;;;8.90;99.90;;;;;;6731879;88;20232;-79
2023/02/13 00:43:56;;;;;;;1999.90;999.90;;;9.00;99.90;;;;;;6731827;88;20271;-79
2023/02/13 00:53:57;;;;;;;1999.90;999.90;;;8.80;99.90;;;;;;6733331;88;20618;-79
2023/02/13 01:03:57;;;;;;;1999.90;999.90;;;8.80;99.90;;;;;;6734554;88;20836;-79
2023/02/13 01:13:58;;;;;;;1999.90;999.90;;;8.70;99.90;;;;;;6734734;88;20215;-79
2023/02/13 01:24:03;;;;;;;1999.90;999.90;;;8.60;99.90;;;;;;6734052;88;20188;-79
2023/02/13 01:34:03;;;;;;;1999.90;999.90;;;8.60;99.90;;;;;;6734722;88;20242;-79
2023/02/13 01:44:42;;;;;;;1999.90;999.90;;;8.50;99.90;;;;;;6733499;88;20211;-79
2023/02/13 01:54:44;;;;;;;1999.90;999.90;;;8.50;99.90;;;;;;6723149;88;20581;-78
2023/02/13 02:04:47;;;;;;;1999.90;999.90;;;8.50;99.90;;;;;;6733691;88;20209;-79
2023/02/13 02:14:49;;;;;;;1999.90;999.90;;;8.50;99.90;;;;;;6733885;88;20193;-79
2023/02/13 02:25:02;;;;;;;1999.90;999.90;;;8.50;99.90;;;;;;6732568;88;20287;-79
2023/02/13 02:35:23;;;;;;;1999.90;999.90;;;8.50;99.90;;;;;;6717464;88;20278;-79
2023/02/13 02:45:27;;;;;;;1999.90;999.90;;;8.50;99.90;;;;;;6716994;88;20185;-79
2023/02/13 02:55:53;;;;;;;1999.90;999.90;;;8.30;99.90;;;;;;6723559;88;20189;-79
2023/02/13 03:06:09;;;;;;;1999.90;999.90;;;8.30;99.90;;;;;;6716539;88;20777;-78
2023/02/13 03:26:51;;;;;;;1999.90;999.90;;;8.30;99.90;;;;;;6715481;88;20229;-79
2023/02/13 03:47:19;;;;;;;1999.90;999.90;;;8.30;99.90;;;;;;6716231;88;20197;-79
2023/02/13 04:07:39;;;;;;;1999.90;999.90;;;8.20;99.90;;;;;;6715570;88;20171;-79
2023/02/13 04:18:00;;;;;;;1999.90;999.90;;;8.10;99.90;;;;;;6715171;88;20921;-79
2023/02/13 04:28:01;;;;;;;1999.90;999.90;;;8.00;99.90;;;;;;6713511;88;20191;-79
2023/02/13 04:38:02;;;;;;;1999.90;999.90;;;7.90;99.90;;;;;;6715572;88;20654;-79
2023/02/13 04:48:02;;;;;;;1999.90;999.90;;;7.80;99.90;;;;;;6715087;88;20177;-79
2023/02/13 04:58:03;;;;;;;1999.90;999.90;;;7.80;99.90;;;;;;6715317;88;20689;-79
2023/02/13 05:08:04;;;;;;;1999.90;999.90;;;7.80;99.90;;;;;;6715021;88;20193;-79
2023/02/13 05:18:05;;;;;;;1999.90;999.90;;;7.70;99.90;;;;;;6715862;88;20197;-79
2023/02/13 05:29:17;;;;;;;1999.90;999.90;;;7.50;99.90;;;;;;6714419;88;20614;-79
2023/02/13 05:38:29;;;;;;;1999.90;999.90;;;7.50;99.90;;;;;;6717434;88;20212;-80
2023/02/13 05:48:30;;;;;;;1999.90;999.90;;;7.40;99.90;;;;;;6718406;88;20269;-79
2023/02/13 05:58:32;;;;;;;1999.90;999.90;;;7.30;99.90;;;;;;6717878;88;20208;-79
2023/02/13 06:09:13;;;;;;;1999.90;999.90;;;7.20;99.90;;;;;;6731276;78;20200;-77
2023/02/13 06:19:14;;;;;;;1999.90;999.90;;;7.00;99.90;;;;;;6738796;88;20200;-78
2023/02/13 06:29:15;;;;;;;1999.90;999.90;;;6.90;99.90;;;;;;6735005;88;20207;-78
2023/02/13 06:39:15;;;;;;;1999.90;999.90;;;6.80;99.90;;;;;;6736888;88;20211;-78
2023/02/13 06:49:15;;;;;;;1999.90;999.90;;;6.70;99.90;;;;;;6749148;88;21006;-79
2023/02/13 06:59:16;;;;;;;1999.90;999.90;;;6.70;99.90;;;;;;6749387;88;20571;-78
2023/02/13 07:09:16;;;;;;;1999.90;999.90;;;6.60;99.90;;;;;;6734809;88;20194;-78
2023/02/13 07:19:17;;;;;;;1999.90;999.90;;;6.50;99.90;;;;;;6738551;88;20214;-81
2023/02/13 07:29:18;;;;;;;1999.90;999.90;;;6.50;99.90;;;;;;6737383;88;20213;-78
2023/02/13 07:39:18;;;;;;;1999.90;999.90;;;6.50;99.90;;;;;;6725744;88;20221;-80
2023/02/13 07:49:19;;;;;;;1999.90;999.90;;;6.50;99.90;;;;;;6740537;88;20169;-80
2023/02/13 07:59:19;;;;;;;1999.90;999.90;;;6.70;99.90;;;;;;6746551;88;20181;-81
2023/02/13 08:19:40;;;;;;;1999.90;999.90;;;7.10;99.90;;;;;;6746967;88;20160;-82
2023/02/13 08:29:40;;;;;;;1999.90;999.90;;;7.20;99.90;;;;;;6748853;88;20209;-81
2023/02/13 08:39:42;;;;;;;1999.90;999.90;;;7.80;99.90;;;;;;6747014;88;21732;-82
2023/02/13 08:49:42;;;;;;;1999.90;999.90;;;8.00;99.90;;;;;;6695380;89;21038;-82
2023/02/13 08:59:43;;;;;;;1999.90;999.90;;;8.10;99.90;;;;;;6695318;89;20247;-81
2023/02/13 09:09:43;;;;;;;1999.90;999.90;;;8.50;99.90;;;;;;6710853;88;20484;-80
2023/02/13 09:19:45;;;;;;;1999.90;999.90;;;8.60;99.90;;;;;;6721045;88;20185;-80
2023/02/13 09:29:46;;;;;;;1999.90;999.90;;;8.80;99.90;;;;;;6714881;88;20196;-81
2023/02/13 09:39:46;;;;;;;1999.90;999.90;;;9.10;99.90;;;;;;6714921;88;20401;-82
2023/02/13 09:49:51;;;;;;;1999.90;999.90;;;9.70;99.90;;;;;;6728438;88;20166;-83
2023/02/13 10:00:02;;;;;;;1999.90;999.90;;;10.00;99.90;;;;;;6746983;88;20197;-82
2023/02/13 10:10:21;;;;;;;1999.90;999.90;;;10.40;99.90;;;;;;6748561;88;20176;-83
2023/02/13 10:20:36;;;;;;;1999.90;999.90;;;10.50;99.90;;;;;;6697253;89;20262;-81
2023/02/13 10:30:49;;;;;;;1999.90;999.90;;;10.80;99.90;;;;;;6713778;88;20163;-80
2023/02/13 10:40:58;;;;;;;1999.90;999.90;;;10.90;99.90;;;;;;6713865;88;20188;-80
2023/02/13 10:51:15;;;;;;;1999.90;999.90;;;11.50;99.90;;;;;;6742983;88;20180;-80
2023/02/13 11:01:41;;;;;;;1999.90;999.90;;;12.20;99.90;;;;;;6748390;88;20161;-81
2023/02/13 11:11:42;;;;;;;1999.90;999.90;;;12.20;99.90;;;;;;6732848;88;20173;-82
2023/02/13 11:21:44;;;;;;;1999.90;999.90;;;12.90;99.90;;;;;;6732748;88;20159;-81
2023/02/13 11:31:45;;;;;;;1999.90;999.90;;;12.80;99.90;;;;;;6732401;88;20173;-82
2023/02/13 11:41:49;;;;;;;1999.90;999.90;;;12.90;99.90;;;;;;6713363;88;20175;-81
2023/02/13 11:51:53;;;;;;;1999.90;999.90;;;13.30;99.90;;;;;;6712853;88;20175;-82
2023/02/13 12:02:12;;;;;;;1999.90;999.90;;;13.80;99.90;;;;;;6721023;88;20177;-79
2023/02/13 12:12:20;;;;;;;1999.90;999.90;;;14.50;99.90;;;;;;6740365;78;20189;-76
2023/02/13 12:22:28;;;;;;;1999.90;999.90;;;14.40;99.90;;;;;;6731106;88;20240;-77
2023/02/13 12:32:46;;;;;;;1999.90;999.90;;;14.10;99.90;;;;;;6735880;88;20189;-77
2023/02/13 12:43:08;;;;;;;1999.90;999.90;;;14.30;99.90;;;;;;6729888;88;20193;-76
2023/02/13 12:53:20;;;;;;;1999.90;999.90;;;15.10;99.90;;;;;;6728598;88;20662;-78
2023/02/13 13:03:46;;;;;;;1999.90;999.90;;;16.20;99.90;;;;;;6733259;88;20237;-77
2023/02/13 13:14:02;;;;;;;;;;;16.60;99.70;;;;;;6731281;88;20189;-77
2023/02/13 13:24:16;;;;;;;1999.90;999.90;;;16.80;98.60;;;;;;6734348;88;20422;-78
2023/02/13 13:34:21;;;;;;;1999.90;999.90;;;17.10;98.30;;;;;;6732361;88;20872;-78
2023/02/13 13:44:46;;;;;;;1999.90;999.90;;;17.20;98.10;;;;;;6729763;88;20318;-78
2023/02/13 13:54:52;;;;;;;1999.90;999.90;;;17.00;98.50;;;;;;6735177;88;20682;-78
2023/02/13 14:05:01;;;;;;;1999.90;999.90;;;18.10;97.80;;;;;;6735372;88;20302;-78
2023/02/13 14:15:02;;;;;;;1999.90;999.90;;;17.10;98.20;;;;;;6730902;88;20264;-78
2023/02/13 14:25:05;;;;;;;1999.90;999.90;;;17.00;98.40;;;;;;6746123;88;20270;-78
2023/02/13 14:35:26;;;;;;;1999.90;999.90;;;17.60;97.80;;;;;;6729828;88;20713;-77
2023/02/13 14:45:31;;;;;;;1999.90;999.90;;;17.90;97.40;;;;;;6735334;88;20714;-77
2023/02/13 14:55:39;;;;;;;1999.90;999.90;;;16.20;99.10;;;;;;6727392;88;20262;-77
2023/02/13 15:05:40;;;;;;;1999.90;999.90;;;15.80;99.20;;;;;;6726132;88;20222;-77
2023/02/13 15:15:41;;;;;;;1999.90;999.90;;;15.40;99.90;;;;;;6727416;88;20229;-77
2023/02/13 15:25:41;;;;;;;1999.90;999.90;;;15.10;99.90;;;;;;6731289;88;20185;-77
2023/02/13 15:35:42;;;;;;;1999.90;999.90;;;14.70;99.90;;;;;;6725348;88;20255;-77
2023/02/13 15:45:43;;;;;;;1999.90;999.90;;;14.70;99.90;;;;;;6730196;88;20726;-78
2023/02/13 15:55:56;;;;;;;1999.90;999.90;;;14.50;99.90;;;;;;6731948;88;20254;-77
2023/02/13 16:05:57;;;;;;;1999.90;999.90;;;14.50;99.90;;;;;;6726100;88;20659;-77
2023/02/13 16:16:00;;;;;;;1999.90;999.90;;;14.20;99.90;;;;;;6730060;88;20267;-77
2023/02/13 16:26:11;;;;;;;1999.90;999.90;;;13.70;99.90;;;;;;6724513;88;20212;-81
2023/02/13 16:36:12;;;;;;;1999.90;999.90;;;13.30;99.90;;;;;;6726346;88;20209;-77
2023/02/13 16:46:18;;;;;;;1999.90;999.90;;;13.00;99.90;;;;;;6728536;88;20226;-76
2023/02/13 16:56:19;;;;;;;1999.90;999.90;;;12.60;99.90;;;;;;6730879;88;20675;-77
2023/02/13 17:06:19;;;;;;;1999.90;999.90;;;12.30;99.90;;;;;;6728137;88;20304;-76
2023/02/13 17:16:20;;;;;;;1999.90;999.90;;;12.10;99.90;;;;;;6729590;88;20201;-78
2023/02/13 17:26:21;;;;;;;1999.90;999.90;;;12.00;99.90;;;;;;6733282;88;20188;-77
2023/02/13 17:36:21;;;;;;;1999.90;999.90;;;11.70;99.90;;;;;;6737949;88;20193;-79
2023/02/13 17:46:22;;;;;;;1999.90;999.90;;;11.40;99.90;;;;;;6736925;88;20201;-78
2023/02/13 17:56:23;;;;;;;1999.90;999.90;;;11.20;99.90;;;;;;6735971;88;20234;-78
2023/02/13 18:06:23;;;;;;;1999.90;999.90;;;10.80;99.90;;;;;;6732032;88;20195;-78
2023/02/13 18:16:24;;;;;;;1999.90;999.90;;;10.50;99.90;;;;;;6752411;77;20252;-76
2023/02/13 18:26:24;;;;;;;1999.90;999.90;;;10.30;99.90;;;;;;6741821;88;20201;-77
2023/02/13 18:36:25;;;;;;;1999.90;999.90;;;10.20;99.90;;;;;;6730900;88;20211;-78
2023/02/13 18:46:25;;;;;;;1999.90;999.90;;;10.20;99.90;;;;;;6738333;88;20214;-77
2023/02/13 18:56:26;;;;;;;1999.90;999.90;;;10.10;99.90;;;;;;6737582;88;20193;-78
2023/02/13 19:06:27;;;;;;;1999.90;999.90;;;10.10;99.90;;;;;;6736601;88;20624;-77
2023/02/13 19:16:29;;;;;;;1999.90;999.90;;;10.00;99.90;;;;;;6738180;88;20252;-78
2023/02/13 19:26:30;;;;;;;1999.90;999.90;;;9.80;99.90;;;;;;6740237;88;20178;-77
2023/02/13 19:36:30;;;;;;;1999.90;999.90;;;9.40;99.90;;;;;;6742174;88;20252;-77
2023/02/13 19:46:31;;;;;;;1999.90;999.90;;;9.20;99.90;;;;;;6731638;88;20596;-77
2023/02/13 19:56:35;;;;;;;1999.90;999.90;;;9.10;99.90;;;;;;6744105;88;20284;-77
2023/02/13 20:06:36;;;;;;;1999.90;999.90;;;9.00;99.90;;;;;;6731202;88;20260;-78
2023/02/13 20:16:37;;;;;;;1999.90;999.90;;;8.80;99.90;;;;;;6748537;88;20213;-77
2023/02/13 20:26:38;;;;;;;1999.90;999.90;;;8.70;99.90;;;;;;6743209;88;20210;-77
2023/02/13 20:36:39;;;;;;;1999.90;999.90;;;8.60;99.90;;;;;;6735727;88;20610;-77
2023/02/13 20:46:40;;;;;;;1999.90;999.90;;;8.50;99.90;;;;;;6736453;88;20184;-76
2023/02/13 20:56:41;;;;;;;1999.90;999.90;;;8.50;99.90;;;;;;6740339;88;20277;-76
2023/02/13 21:06:41;;;;;;;1999.90;999.90;;;8.40;99.90;;;;;;6743768;88;20273;-76
2023/02/13 21:16:42;;;;;;;1999.90;999.90;;;8.30;99.90;;;;;;6743361;88;20209;-76
2023/02/13 21:26:44;;;;;;;1999.90;999.90;;;8.10;99.90;;;;;;6751344;88;20657;-77
2023/02/13 21:36:45;;;;;;;1999.90;999.90;;;8.00;99.90;;;;;;6746810;88;20247;-77
2023/02/13 21:46:46;;;;;;;1999.90;999.90;;;7.80;99.90;;;;;;6743005;88;20177;-76
2023/02/13 21:56:46;;;;;;;1999.90;999.90;;;7.60;99.90;;;;;;6745198;88;20189;-76
2023/02/13 22:06:49;;;;;;;1999.90;999.90;;;7.30;99.90;;;;;;6740724;88;20246;-77
2023/02/13 22:16:51;;;;;;;1999.90;999.90;;;6.80;99.90;;;;;;6741687;88;20196;-76
2023/02/13 22:26:52;;;;;;;1999.90;999.90;;;6.40;99.90;;;;;;6738143;88;20226;-76
2023/02/13 22:36:52;;;;;;;1999.90;999.90;;;6.00;99.90;;;;;;6746138;88;20689;-77
2023/02/13 22:46:53;;;;;;;1999.90;999.90;;;5.80;99.90;;;;;;6751158;88;20181;-76
2023/02/13 22:56:53;;;;;;;1999.90;999.90;;;5.60;99.90;;;;;;6736928;88;20210;-76
2023/02/13 23:06:54;;;;;;;1999.90;999.90;;;5.50;99.90;;;;;;6738043;88;20193;-76
2023/02/13 23:27:14;;;;;;;1999.90;999.90;;;5.30;99.90;;;;;;6737401;88;20184;-76
2023/02/13 23:37:15;;;;;;;1999.90;999.90;;;5.40;99.90;;;;;;6737577;88;20185;-76
2023/02/13 23:47:15;;;;;;;1999.90;999.90;;;5.40;99.90;;;;;;6735685;88;20190;-76
2023/02/13 23:57:16;;;;;;;1999.90;999.90;;;5.20;99.90;;;;;;6739859;88;20332;-76
